Time;durP1;ratioP1;P1;durP2;ratioP2;P2;SDS_P1;SDS_P2;PMS_P1;PMS_P2;Temp;Humidity;BMP_temperature;BMP_pressure;BME280_temperature;BME280_humidity;BME280_pressure;Samples;Min_cycle;Max_cycle;Signal;HPM_P1;HPM_P2
2023/06/20 00:00:54;;;;;;;3.95;2.85;;;;;;;;;;8347249;28;20048;-60
2023/06/20 00:04:54;;;;;;;4.18;3.20;;;;;;;;;;8346069;28;20033;-60
2023/06/20 00:08:55;;;;;;;4.82;3.55;;;;;;;;;;8345831;28;20020;-60
2023/06/20 00:12:55;;;;;;;3.80;3.50;;;;;;;;;;8346740;28;20020;-60
2023/06/20 00:16:58;;;;;;;3.90;3.47;;;;;;;;;;8343633;28;20051;-60
2023/06/20 00:20:59;;;;;;;3.60;3.30;;;;;;;;;;8344911;28;20528;-60
2023/06/20 00:24:59;;;;;;;3.85;3.45;;;;;;;;;;8345868;28;20112;-60
2023/06/20 00:28:59;;;;;;;4.80;3.85;;;;;;;;;;8326770;28;20044;-60
2023/06/20 00:32:59;;;;;;;5.03;3.80;;;;;;;;;;8344383;28;20032;-60
2023/06/20 00:36:59;;;;;;;4.75;3.70;;;;;;;;;;8345088;28;20047;-60
2023/06/20 00:41:00;;;;;;;6.03;4.20;;;;;;;;;;8346749;28;20393;-60
2023/06/20 00:45:00;;;;;;;4.13;3.72;;;;;;;;;;8345817;28;20085;-60
2023/06/20 00:49:04;;;;;;;3.92;3.63;;;;;;;;;;8342998;28;20150;-60
2023/06/20 00:53:05;;;;;;;4.35;3.95;;;;;;;;;;8345049;28;20096;-60
2023/06/20 00:57:06;;;;;;;4.28;3.90;;;;;;;;;;8343950;28;20036;-60
2023/06/20 01:01:06;;;;;;;3.70;3.40;;;;;;;;;;8342630;28;20029;-60
2023/06/20 01:05:06;;;;;;;3.57;3.27;;;;;;;;;;8344262;28;20101;-60
2023/06/20 01:09:11;;;;;;;3.90;3.50;;;;;;;;;;8342345;28;20036;-60
2023/06/20 01:13:17;;;;;;;3.58;3.28;;;;;;;;;;8345877;28;20024;-60
2023/06/20 01:17:27;;;;;;;3.67;3.38;;;;;;;;;;8344686;28;20658;-60
2023/06/20 01:21:40;;;;;;;4.60;4.20;;;;;;;;;;8343644;28;20508;-60
2023/06/20 01:25:54;;;;;;;4.63;4.18;;;;;;;;;;8345750;28;20552;-60
2023/06/20 01:29:57;;;;;;;5.80;4.30;;;;;;;;;;8349020;28;20036;-59
2023/06/20 01:34:00;;;;;;;6.22;4.32;;;;;;;;;;8348822;28;20041;-60
2023/06/20 01:38:03;;;;;;;4.60;4.20;;;;;;;;;;8346898;28;20028;-60
2023/06/20 01:42:04;;;;;;;4.65;4.25;;;;;;;;;;8350908;28;20350;-60
2023/06/20 01:46:05;;;;;;;4.03;3.70;;;;;;;;;;8353036;28;20114;-60
2023/06/20 01:50:07;;;;;;;3.95;3.55;;;;;;;;;;8332246;28;20040;-60
2023/06/20 01:54:08;;;;;;;4.78;4.00;;;;;;;;;;8349592;28;20012;-60
2023/06/20 01:58:10;;;;;;;4.03;3.60;;;;;;;;;;8349065;28;20091;-60
2023/06/20 02:02:11;;;;;;;4.15;3.72;;;;;;;;;;8349070;28;20048;-60
2023/06/20 02:06:13;;;;;;;4.22;3.90;;;;;;;;;;8350603;28;20020;-60
2023/06/20 02:10:13;;;;;;;3.83;3.55;;;;;;;;;;8346383;28;20029;-60
2023/06/20 02:14:14;;;;;;;4.30;3.90;;;;;;;;;;8342276;28;20043;-61
2023/06/20 02:18:14;;;;;;;4.40;4.00;;;;;;;;;;8348361;28;20396;-60
2023/06/20 02:22:16;;;;;;;5.77;4.40;;;;;;;;;;8350145;28;20031;-60
2023/06/20 02:26:17;;;;;;;6.10;5.00;;;;;;;;;;8347331;28;20294;-60
2023/06/20 02:30:18;;;;;;;5.07;4.55;;;;;;;;;;8339359;28;20504;-60
2023/06/20 02:34:20;;;;;;;5.72;5.10;;;;;;;;;;8349080;28;20021;-60
2023/06/20 02:38:20;;;;;;;9.57;6.00;;;;;;;;;;8347916;28;20115;-60
2023/06/20 02:42:20;;;;;;;5.95;5.35;;;;;;;;;;8351001;28;20966;-60
2023/06/20 02:46:42;;;;;;;7.00;5.57;;;;;;;;;;8347015;28;20773;-60
2023/06/20 02:51:00;;;;;;;7.68;6.10;;;;;;;;;;8347074;28;20067;-60
2023/06/20 02:55:12;;;;;;;6.18;5.65;;;;;;;;;;8348152;28;20436;-60
2023/06/20 02:59:13;;;;;;;6.80;6.10;;;;;;;;;;8350155;28;20032;-60
2023/06/20 03:03:24;;;;;;;6.10;5.50;;;;;;;;;;8348058;28;20041;-60
2023/06/20 03:07:26;;;;;;;6.80;5.93;;;;;;;;;;8345241;28;20388;-60
2023/06/20 03:11:26;;;;;;;7.10;6.40;;;;;;;;;;8346945;28;20028;-60
2023/06/20 03:15:27;;;;;;;7.35;5.85;;;;;;;;;;8346999;28;20043;-60
2023/06/20 03:19:27;;;;;;;8.23;6.57;;;;;;;;;;8347764;28;20796;-60
2023/06/20 03:23:27;;;;;;;6.43;5.83;;;;;;;;;;8349286;28;20037;-60
2023/06/20 03:27:28;;;;;;;7.40;6.70;;;;;;;;;;8343612;28;20032;-60
2023/06/20 03:31:28;;;;;;;7.43;6.72;;;;;;;;;;8348844;28;21046;-60
2023/06/20 03:35:28;;;;;;;7.15;6.18;;;;;;;;;;8348043;28;20028;-60
2023/06/20 03:39:28;;;;;;;7.00;6.32;;;;;;;;;;8345673;28;20048;-60
2023/06/20 03:43:28;;;;;;;7.57;6.78;;;;;;;;;;8347625;28;20131;-61
2023/06/20 03:47:28;;;;;;;7.63;6.93;;;;;;;;;;8344650;28;20033;-60
2023/06/20 03:51:29;;;;;;;7.70;6.90;;;;;;;;;;8345841;28;20032;-61
2023/06/20 03:55:29;;;;;;;11.07;7.10;;;;;;;;;;8345847;28;20020;-60
2023/06/20 03:59:29;;;;;;;8.18;7.38;;;;;;;;;;8328187;28;20691;-60
2023/06/20 04:03:29;;;;;;;8.57;7.78;;;;;;;;;;8345198;28;20162;-60
2023/06/20 04:07:31;;;;;;;8.60;7.80;;;;;;;;;;8345955;28;20021;-60
2023/06/20 04:11:31;;;;;;;9.70;8.38;;;;;;;;;;8347822;28;20039;-60
2023/06/20 04:15:32;;;;;;;7.60;6.85;;;;;;;;;;8345966;28;20029;-60
2023/06/20 04:19:33;;;;;;;7.73;7.03;;;;;;;;;;8344850;28;20032;-60
2023/06/20 04:23:33;;;;;;;7.20;6.50;;;;;;;;;;8348634;28;20296;-60
2023/06/20 04:27:33;;;;;;;6.43;5.87;;;;;;;;;;8344212;28;20028;-60
2023/06/20 04:31:33;;;;;;;5.90;5.30;;;;;;;;;;8346733;28;20274;-60
2023/06/20 04:35:33;;;;;;;5.97;5.38;;;;;;;;;;8342957;28;20040;-60
2023/06/20 04:39:34;;;;;;;6.03;5.53;;;;;;;;;;8345315;28;20044;-60
2023/06/20 04:43:35;;;;;;;5.68;5.18;;;;;;;;;;8344992;28;20130;-60
2023/06/20 04:47:35;;;;;;;5.30;4.80;;;;;;;;;;8345778;28;20044;-60
2023/06/20 04:51:35;;;;;;;7.33;5.60;;;;;;;;;;8344504;28;20032;-60
2023/06/20 04:55:38;;;;;;;6.20;5.60;;;;;;;;;;8346608;28;20085;-60
2023/06/20 04:59:39;;;;;;;5.83;5.33;;;;;;;;;;8339097;28;20291;-61
2023/06/20 05:03:39;;;;;;;6.45;5.85;;;;;;;;;;8342658;28;20047;-60
2023/06/20 05:07:39;;;;;;;6.32;5.82;;;;;;;;;;8343000;28;20063;-60
2023/06/20 05:11:39;;;;;;;7.93;5.63;;;;;;;;;;8343237;28;20067;-60
2023/06/20 05:15:40;;;;;;;6.00;5.38;;;;;;;;;;8341349;28;20064;-61
2023/06/20 05:19:40;;;;;;;5.73;5.13;;;;;;;;;;8344544;28;20060;-61
2023/06/20 05:23:40;;;;;;;5.60;4.72;;;;;;;;;;8345332;28;20291;-61
2023/06/20 05:27:40;;;;;;;5.13;4.63;;;;;;;;;;8345355;28;20112;-61
2023/06/20 05:31:41;;;;;;;5.73;5.13;;;;;;;;;;8344825;28;20048;-62
2023/06/20 05:35:44;;;;;;;8.80;5.10;;;;;;;;;;8343645;28;20024;-61
2023/06/20 05:39:44;;;;;;;12.57;5.03;;;;;;;;;;8343036;28;20028;-61
2023/06/20 05:43:44;;;;;;;16.53;6.13;;;;;;;;;;8343883;28;20041;-61
2023/06/20 05:47:45;;;;;;;7.00;5.05;;;;;;;;;;8323865;28;20379;-61
2023/06/20 05:51:45;;;;;;;7.03;4.97;;;;;;;;;;8343999;28;20029;-61
2023/06/20 05:55:45;;;;;;;8.85;6.25;;;;;;;;;;8342360;28;21630;-61
2023/06/20 05:59:45;;;;;;;8.75;6.50;;;;;;;;;;8344997;28;20032;-61
2023/06/20 06:03:47;;;;;;;6.78;6.18;;;;;;;;;;8334143;28;20029;-61
2023/06/20 06:07:47;;;;;;;7.32;6.05;;;;;;;;;;8335377;28;20043;-61
2023/06/20 06:11:47;;;;;;;7.55;6.68;;;;;;;;;;8333572;28;20029;-61
2023/06/20 06:15:48;;;;;;;6.85;6.15;;;;;;;;;;8335709;28;20040;-61
2023/06/20 06:19:48;;;;;;;5.83;5.20;;;;;;;;;;8346818;28;20035;-61
2023/06/20 06:23:49;;;;;;;6.40;4.82;;;;;;;;;;8337705;28;20090;-61
2023/06/20 06:27:49;;;;;;;5.57;4.30;;;;;;;;;;8336481;28;20074;-61
2023/06/20 06:31:49;;;;;;;6.03;4.20;;;;;;;;;;8336962;28;20044;-61
2023/06/20 06:35:49;;;;;;;4.93;4.35;;;;;;;;;;8336593;28;20029;-61
2023/06/20 06:39:49;;;;;;;7.37;4.10;;;;;;;;;;8337595;28;20835;-61
2023/06/20 06:43:50;;;;;;;5.95;4.05;;;;;;;;;;8341417;28;20043;-61
2023/06/20 06:47:50;;;;;;;4.83;3.67;;;;;;;;;;8335733;28;20127;-61
2023/06/20 06:51:50;;;;;;;4.53;4.10;;;;;;;;;;8337163;28;20271;-61
2023/06/20 06:55:50;;;;;;;4.70;4.30;;;;;;;;;;8337297;28;20032;-61
2023/06/20 06:59:51;;;;;;;7.30;4.43;;;;;;;;;;8337756;28;20043;-61
2023/06/20 07:03:51;;;;;;;4.93;4.30;;;;;;;;;;8336852;28;20036;-61
2023/06/20 07:07:51;;;;;;;7.60;4.20;;;;;;;;;;8334362;28;20029;-61
2023/06/20 07:11:51;;;;;;;4.35;3.95;;;;;;;;;;8335498;28;20033;-61
2023/06/20 07:15:51;;;;;;;5.00;4.60;;;;;;;;;;8334053;28;20066;-61
2023/06/20 07:19:52;;;;;;;5.80;5.10;;;;;;;;;;8337487;28;20028;-61
2023/06/20 07:23:52;;;;;;;6.10;5.50;;;;;;;;;;8333568;28;20844;-62
2023/06/20 07:27:52;;;;;;;6.30;5.72;;;;;;;;;;8336327;28;20111;-61
2023/06/20 07:31:53;;;;;;;7.97;5.75;;;;;;;;;;8336299;28;20056;-61
2023/06/20 07:35:53;;;;;;;7.00;6.30;;;;;;;;;;8340020;28;20726;-61
2023/06/20 07:39:53;;;;;;;5.93;4.95;;;;;;;;;;8341192;28;20232;-61
2023/06/20 07:43:53;;;;;;;7.22;6.57;;;;;;;;;;8334361;28;20020;-61
2023/06/20 07:47:53;;;;;;;7.03;6.32;;;;;;;;;;8332760;28;20036;-61
2023/06/20 07:51:54;;;;;;;6.13;5.60;;;;;;;;;;8336923;28;20021;-61
2023/06/20 07:55:55;;;;;;;6.40;5.90;;;;;;;;;;8338952;28;20119;-60
2023/06/20 07:59:55;;;;;;;6.40;5.80;;;;;;;;;;8342524;28;20509;-60
2023/06/20 08:03:56;;;;;;;5.90;5.40;;;;;;;;;;8336110;28;20574;-61
2023/06/20 08:07:56;;;;;;;6.80;6.00;;;;;;;;;;8336513;28;20722;-61
2023/06/20 08:11:56;;;;;;;5.97;5.43;;;;;;;;;;8333572;28;20701;-61
2023/06/20 08:15:57;;;;;;;5.30;4.80;;;;;;;;;;8321404;28;20094;-61
2023/06/20 08:19:59;;;;;;;5.60;5.10;;;;;;;;;;8334390;28;20028;-61
2023/06/20 08:23:59;;;;;;;10.45;4.63;;;;;;;;;;8334150;28;20044;-61
2023/06/20 08:28:00;;;;;;;5.10;4.60;;;;;;;;;;8332917;28;20138;-61
2023/06/20 08:32:00;;;;;;;6.47;4.57;;;;;;;;;;8337884;28;20029;-61
2023/06/20 08:36:01;;;;;;;8.05;4.00;;;;;;;;;;8332235;28;20028;-61
2023/06/20 08:40:03;;;;;;;3.72;3.40;;;;;;;;;;8332631;28;20090;-61
2023/06/20 08:44:04;;;;;;;6.43;3.47;;;;;;;;;;8339787;28;20574;-61
2023/06/20 08:48:04;;;;;;;7.70;3.60;;;;;;;;;;8332896;28;20071;-60
2023/06/20 08:52:08;;;;;;;7.83;3.47;;;;;;;;;;8334207;28;20912;-61
2023/06/20 08:56:09;;;;;;;6.38;3.25;;;;;;;;;;8332673;28;20448;-61
2023/06/20 09:00:11;;;;;;;8.53;3.57;;;;;;;;;;8333008;28;20430;-61
2023/06/20 09:04:11;;;;;;;4.18;3.63;;;;;;;;;;8332817;28;20021;-61
2023/06/20 09:08:15;;;;;;;3.57;3.27;;;;;;;;;;8333010;28;20596;-61
2023/06/20 09:12:15;;;;;;;3.47;3.17;;;;;;;;;;8333770;28;21251;-62
2023/06/20 09:16:15;;;;;;;3.20;2.90;;;;;;;;;;8337568;28;20049;-61
2023/06/20 09:20:15;;;;;;;3.40;3.10;;;;;;;;;;8332927;28;20096;-61
2023/06/20 09:24:19;;;;;;;3.33;3.10;;;;;;;;;;8333393;28;20720;-61
2023/06/20 09:28:20;;;;;;;3.55;3.25;;;;;;;;;;8333546;28;20033;-61
2023/06/20 09:32:20;;;;;;;3.40;3.20;;;;;;;;;;8334397;28;20040;-61
2023/06/20 09:36:21;;;;;;;3.53;3.23;;;;;;;;;;8331192;28;20025;-61
2023/06/20 09:40:22;;;;;;;3.20;2.90;;;;;;;;;;8331332;28;20378;-61
2023/06/20 09:44:23;;;;;;;3.17;2.88;;;;;;;;;;8333635;28;20033;-61
2023/06/20 09:48:24;;;;;;;3.40;3.10;;;;;;;;;;8337041;28;20077;-61
2023/06/20 09:52:24;;;;;;;;;;;;;;;;;;8339028;28;20093;-61
2023/06/20 09:56:26;;;;;;;3.67;3.38;;;;;;;;;;8340049;28;20035;-61
2023/06/20 10:00:29;;;;;;;3.00;2.80;;;;;;;;;;8337930;28;20510;-61
2023/06/20 10:04:30;;;;;;;3.10;2.80;;;;;;;;;;8339149;28;20497;-61
2023/06/20 10:08:30;;;;;;;3.90;3.17;;;;;;;;;;8343128;28;20028;-61
2023/06/20 10:12:31;;;;;;;3.63;3.33;;;;;;;;;;8334869;28;20949;-61
2023/06/20 10:16:31;;;;;;;4.78;3.22;;;;;;;;;;8337670;28;20343;-61
2023/06/20 10:20:37;;;;;;;6.20;3.23;;;;;;;;;;8339305;28;20419;-61
2023/06/20 10:24:39;;;;;;;3.13;2.92;;;;;;;;;;8339116;28;20467;-61
2023/06/20 10:28:39;;;;;;;6.82;3.58;;;;;;;;;;8337819;28;20928;-61
2023/06/20 10:32:58;;;;;;;3.75;2.92;;;;;;;;;;8342400;28;20033;-61
2023/06/20 10:37:08;;;;;;;3.97;3.30;;;;;;;;;;8330289;28;20036;-61
2023/06/20 10:41:15;;;;;;;10.13;3.65;;;;;;;;;;8344292;28;20025;-59
2023/06/20 10:45:34;;;;;;;3.67;3.25;;;;;;;;;;8337041;28;20524;-61
2023/06/20 10:49:34;;;;;;;4.90;2.90;;;;;;;;;;8343103;28;20047;-61
2023/06/20 10:53:34;;;;;;;3.20;2.90;;;;;;;;;;8337802;28;20694;-61
2023/06/20 10:57:35;;;;;;;3.63;2.90;;;;;;;;;;8340184;28;20055;-61
2023/06/20 11:01:35;;;;;;;3.30;3.00;;;;;;;;;;8334818;28;20045;-61
2023/06/20 11:05:36;;;;;;;3.95;2.67;;;;;;;;;;8334846;28;21008;-61
2023/06/20 11:09:38;;;;;;;4.30;2.88;;;;;;;;;;8334793;28;20913;-61
2023/06/20 11:13:43;;;;;;;3.10;2.80;;;;;;;;;;8337360;28;20223;-61
2023/06/20 11:17:43;;;;;;;5.25;3.10;;;;;;;;;;8341063;28;20037;-61
2023/06/20 11:21:43;;;;;;;3.63;2.80;;;;;;;;;;8335383;28;20057;-61
2023/06/20 11:25:44;;;;;;;2.70;2.50;;;;;;;;;;8336895;28;20031;-61
2023/06/20 11:29:45;;;;;;;2.83;2.60;;;;;;;;;;8347157;28;20077;-61
2023/06/20 11:33:45;;;;;;;2.78;2.10;;;;;;;;;;8335390;28;20047;-61
2023/06/20 11:37:46;;;;;;;2.58;2.30;;;;;;;;;;8331462;28;20032;-61
2023/06/20 11:41:46;;;;;;;2.85;2.55;;;;;;;;;;8336884;28;20529;-61
2023/06/20 11:45:47;;;;;;;2.28;2.08;;;;;;;;;;8325372;28;20505;-61
2023/06/20 11:49:47;;;;;;;2.47;2.27;;;;;;;;;;8332896;28;20102;-61
2023/06/20 11:53:47;;;;;;;;;;;;;;;;;;8325888;28;20025;-61
2023/06/20 11:57:47;;;;;;;3.67;2.20;;;;;;;;;;8325255;28;19963;-61
2023/06/20 12:01:47;;;;;;;4.10;2.28;;;;;;;;;;8335036;28;20101;-61
2023/06/20 12:05:48;;;;;;;4.03;2.00;;;;;;;;;;8326783;28;20638;-61
2023/06/20 12:09:48;;;;;;;2.53;2.30;;;;;;;;;;8339165;28;20032;-61
2023/06/20 12:13:48;;;;;;;2.80;2.30;;;;;;;;;;8345668;28;20038;-61
2023/06/20 12:17:48;;;;;;;2.20;2.10;;;;;;;;;;8337191;28;20044;-62
2023/06/20 12:21:49;;;;;;;2.47;2.28;;;;;;;;;;8331417;28;20056;-61
2023/06/20 12:25:49;;;;;;;3.35;2.38;;;;;;;;;;8334126;28;20029;-61
2023/06/20 12:29:49;;;;;;;2.53;2.28;;;;;;;;;;8333963;28;20049;-61
2023/06/20 12:33:50;;;;;;;4.22;2.30;;;;;;;;;;8333392;28;20175;-60
2023/06/20 12:37:50;;;;;;;;;;;;;;;;;;8332945;28;20036;-61
2023/06/20 12:41:50;;;;;;;4.03;2.50;;;;;;;;;;8336828;28;19919;-61
2023/06/20 12:45:52;;;;;;;3.17;2.88;;;;;;;;;;8331829;28;20036;-61
2023/06/20 12:49:54;;;;;;;2.65;2.45;;;;;;;;;;8333039;28;20129;-61
2023/06/20 12:53:55;;;;;;;3.58;2.83;;;;;;;;;;8332191;28;20029;-61
2023/06/20 12:57:55;;;;;;;3.92;2.70;;;;;;;;;;8329836;28;20027;-61
2023/06/20 13:01:56;;;;;;;3.08;2.88;;;;;;;;;;8329017;28;20036;-61
2023/06/20 13:05:56;;;;;;;3.38;3.00;;;;;;;;;;8336188;28;20017;-61
2023/06/20 13:09:57;;;;;;;3.75;3.10;;;;;;;;;;8335177;28;20036;-61
2023/06/20 13:13:57;;;;;;;3.75;3.20;;;;;;;;;;8328837;28;20033;-61
2023/06/20 13:17:58;;;;;;;2.85;2.65;;;;;;;;;;8311149;28;21030;-61
2023/06/20 13:21:58;;;;;;;3.17;2.90;;;;;;;;;;8332306;28;20052;-60
2023/06/20 13:25:59;;;;;;;4.10;3.70;;;;;;;;;;8347905;28;20043;-61
2023/06/20 13:29:59;;;;;;;4.32;3.90;;;;;;;;;;8337999;28;20464;-61
2023/06/20 13:33:59;;;;;;;4.30;3.37;;;;;;;;;;8340615;28;20092;-61
2023/06/20 13:37:59;;;;;;;5.03;3.30;;;;;;;;;;8349860;28;20794;-61
2023/06/20 13:42:00;;;;;;;4.78;3.40;;;;;;;;;;8339953;28;20021;-60
2023/06/20 13:46:00;;;;;;;3.70;3.30;;;;;;;;;;8339943;28;20037;-61
2023/06/20 13:50:01;;;;;;;3.27;3.03;;;;;;;;;;8331682;28;20160;-61
2023/06/20 13:54:03;;;;;;;3.85;3.50;;;;;;;;;;8334441;28;20675;-62
2023/06/20 13:58:03;;;;;;;4.10;3.80;;;;;;;;;;8335177;28;20743;-61
2023/06/20 14:02:03;;;;;;;4.00;3.70;;;;;;;;;;8343737;28;20198;-61
2023/06/20 14:06:04;;;;;;;4.20;3.80;;;;;;;;;;8322534;28;20180;-61
2023/06/20 14:10:04;;;;;;;4.00;3.60;;;;;;;;;;8332605;28;20032;-61
2023/06/20 14:14:05;;;;;;;4.13;3.83;;;;;;;;;;8333054;28;20304;-61
2023/06/20 14:18:05;;;;;;;4.75;3.72;;;;;;;;;;8333130;28;20109;-61
2023/06/20 14:22:05;;;;;;;4.45;4.03;;;;;;;;;;8339701;28;20021;-61
2023/06/20 14:26:05;;;;;;;4.50;3.60;;;;;;;;;;8348221;28;20028;-61
2023/06/20 14:30:07;;;;;;;4.97;3.67;;;;;;;;;;8341322;28;20025;-61
2023/06/20 14:34:07;;;;;;;5.53;4.15;;;;;;;;;;8339878;28;20875;-61
2023/06/20 14:38:07;;;;;;;3.63;3.28;;;;;;;;;;8332331;28;20068;-61
2023/06/20 14:42:07;;;;;;;6.00;4.10;;;;;;;;;;8333467;28;20791;-61
2023/06/20 14:46:09;;;;;;;4.28;3.88;;;;;;;;;;8323422;28;20103;-61
2023/06/20 14:50:09;;;;;;;5.13;3.83;;;;;;;;;;8313544;28;20021;-61
2023/06/20 14:54:10;;;;;;;4.23;3.80;;;;;;;;;;8336508;28;21090;-61
2023/06/20 14:58:10;;;;;;;4.67;3.90;;;;;;;;;;8335120;28;20073;-62
2023/06/20 15:02:10;;;;;;;4.20;3.80;;;;;;;;;;8332442;28;20029;-61
2023/06/20 15:06:10;;;;;;;6.37;4.03;;;;;;;;;;8333622;28;20083;-61
2023/06/20 15:10:11;;;;;;;4.95;4.03;;;;;;;;;;8334387;28;20054;-61
2023/06/20 15:14:11;;;;;;;4.00;3.70;;;;;;;;;;8334712;28;20029;-61
2023/06/20 15:18:11;;;;;;;3.95;3.55;;;;;;;;;;8336151;28;20123;-61
2023/06/20 15:22:11;;;;;;;5.45;4.00;;;;;;;;;;8342663;28;20028;-61
2023/06/20 15:26:11;;;;;;;5.45;3.70;;;;;;;;;;8330627;28;20111;-61
2023/06/20 15:30:13;;;;;;;5.30;4.07;;;;;;;;;;8332571;28;20024;-61
2023/06/20 15:34:14;;;;;;;6.45;3.70;;;;;;;;;;8339891;28;20503;-61
2023/06/20 15:38:14;;;;;;;5.13;3.90;;;;;;;;;;8324844;28;20021;-61
2023/06/20 15:42:14;;;;;;;5.60;4.07;;;;;;;;;;8324716;28;20589;-61
2023/06/20 15:46:14;;;;;;;8.68;4.45;;;;;;;;;;8330445;28;20029;-61
2023/06/20 15:50:15;;;;;;;7.40;4.20;;;;;;;;;;8335749;28;20043;-61
2023/06/20 15:54:15;;;;;;;13.80;4.20;;;;;;;;;;8338875;28;20540;-61
2023/06/20 15:58:15;;;;;;;6.18;4.45;;;;;;;;;;8332527;28;20071;-61
2023/06/20 16:02:18;;;;;;;5.85;4.28;;;;;;;;;;8334338;28;20090;-61
2023/06/20 16:06:19;;;;;;;4.68;4.13;;;;;;;;;;8333950;28;20051;-61
2023/06/20 16:10:19;;;;;;;4.20;3.80;;;;;;;;;;8340126;28;20032;-61
2023/06/20 16:14:19;;;;;;;4.40;4.00;;;;;;;;;;8316619;28;20052;-61
2023/06/20 16:18:19;;;;;;;4.53;3.95;;;;;;;;;;8322684;28;20050;-61
2023/06/20 16:22:20;;;;;;;4.55;4.10;;;;;;;;;;8332823;28;20032;-61
2023/06/20 16:26:20;;;;;;;7.75;3.90;;;;;;;;;;8334217;28;20033;-61
2023/06/20 16:30:20;;;;;;;6.05;4.00;;;;;;;;;;8331700;28;20061;-61
2023/06/20 16:34:20;;;;;;;5.57;4.15;;;;;;;;;;8332361;28;20071;-61
2023/06/20 16:38:21;;;;;;;5.13;3.53;;;;;;;;;;8333580;28;20028;-61
2023/06/20 16:42:21;;;;;;;4.63;4.20;;;;;;;;;;8331270;28;20453;-61
2023/06/20 16:46:21;;;;;;;4.72;4.18;;;;;;;;;;8335282;28;20032;-61
2023/06/20 16:50:22;;;;;;;6.60;4.22;;;;;;;;;;8337616;28;20029;-61
2023/06/20 16:54:23;;;;;;;8.40;4.53;;;;;;;;;;8316764;28;20094;-61
2023/06/20 16:58:23;;;;;;;8.15;4.60;;;;;;;;;;8332337;28;20036;-61
2023/06/20 17:02:23;;;;;;;7.80;4.82;;;;;;;;;;8334155;28;20123;-61
2023/06/20 17:06:23;;;;;;;7.30;5.35;;;;;;;;;;8332743;28;20453;-61
2023/06/20 17:10:24;;;;;;;14.68;5.85;;;;;;;;;;8333342;28;20048;-60
2023/06/20 17:14:24;;;;;;;7.47;3.90;;;;;;;;;;8331308;28;20029;-60
2023/06/20 17:18:25;;;;;;;7.25;4.15;;;;;;;;;;8327996;28;20033;-60
2023/06/20 17:22:25;;;;;;;6.17;3.93;;;;;;;;;;8331903;28;20016;-61
2023/06/20 17:26:25;;;;;;;7.78;4.72;;;;;;;;;;8330182;28;20457;-61
2023/06/20 17:30:25;;;;;;;7.18;4.45;;;;;;;;;;8330617;28;20758;-61
2023/06/20 17:34:26;;;;;;;7.18;4.25;;;;;;;;;;8334123;28;20098;-61
2023/06/20 17:38:26;;;;;;;6.80;4.47;;;;;;;;;;8331254;28;20119;-61
2023/06/20 17:42:26;;;;;;;10.18;4.70;;;;;;;;;;8339090;28;20416;-61
2023/06/20 17:46:26;;;;;;;7.45;4.88;;;;;;;;;;8335439;28;20033;-61
2023/06/20 17:50:27;;;;;;;8.07;5.00;;;;;;;;;;8334354;28;20025;-61
2023/06/20 17:54:27;;;;;;;7.13;5.10;;;;;;;;;;8332208;28;20497;-61
2023/06/20 17:58:27;;;;;;;8.05;4.85;;;;;;;;;;8330203;28;20036;-61
2023/06/20 18:02:27;;;;;;;9.27;5.30;;;;;;;;;;8331102;28;20064;-61
2023/06/20 18:06:27;;;;;;;7.47;4.90;;;;;;;;;;8331671;28;20063;-61
2023/06/20 18:10:27;;;;;;;7.35;4.68;;;;;;;;;;8338273;28;20055;-61
2023/06/20 18:14:28;;;;;;;6.43;4.43;;;;;;;;;;8338598;28;20110;-60
2023/06/20 18:18:29;;;;;;;6.38;4.60;;;;;;;;;;8336112;28;20808;-61
2023/06/20 18:22:29;;;;;;;8.48;5.15;;;;;;;;;;8337169;28;20122;-61
2023/06/20 18:26:29;;;;;;;7.57;4.68;;;;;;;;;;8337688;28;20134;-60
2023/06/20 18:30:30;;;;;;;11.20;4.90;;;;;;;;;;8339904;28;20029;-61
2023/06/20 18:34:31;;;;;;;6.47;4.70;;;;;;;;;;8347869;28;20029;-61
2023/06/20 18:38:32;;;;;;;10.80;4.80;;;;;;;;;;8336604;28;20135;-61
2023/06/20 18:42:32;;;;;;;7.70;4.75;;;;;;;;;;8337702;28;20028;-61
2023/06/20 18:46:32;;;;;;;8.35;4.53;;;;;;;;;;8319084;28;20037;-60
2023/06/20 18:50:33;;;;;;;8.15;4.75;;;;;;;;;;8338640;28;20918;-60
2023/06/20 18:54:33;;;;;;;6.90;4.68;;;;;;;;;;8338572;28;20028;-61
2023/06/20 18:58:34;;;;;;;9.23;4.82;;;;;;;;;;8338337;28;20033;-61
2023/06/20 19:02:34;;;;;;;9.70;4.47;;;;;;;;;;8336619;28;20036;-60
2023/06/20 19:06:35;;;;;;;8.18;4.95;;;;;;;;;;8337479;28;20024;-61
2023/06/20 19:10:35;;;;;;;6.10;4.30;;;;;;;;;;8336104;28;20037;-61
2023/06/20 19:14:35;;;;;;;7.97;4.78;;;;;;;;;;8336258;28;20275;-60
2023/06/20 19:18:35;;;;;;;8.60;4.70;;;;;;;;;;8317780;28;20171;-60
2023/06/20 19:22:35;;;;;;;7.65;4.47;;;;;;;;;;8342705;28;20585;-60
2023/06/20 19:26:36;;;;;;;8.27;4.70;;;;;;;;;;8339719;28;20039;-61
2023/06/20 19:30:36;;;;;;;8.43;4.57;;;;;;;;;;8336131;28;20037;-60
2023/06/20 19:34:36;;;;;;;5.88;4.63;;;;;;;;;;8341286;28;20170;-61
2023/06/20 19:38:36;;;;;;;7.35;4.80;;;;;;;;;;8337082;28;20977;-60
2023/06/20 19:42:37;;;;;;;10.13;5.05;;;;;;;;;;8341345;28;20064;-60
2023/06/20 19:46:37;;;;;;;9.82;5.40;;;;;;;;;;8332862;28;20147;-60
2023/06/20 19:50:37;;;;;;;6.97;4.55;;;;;;;;;;8338682;28;20024;-61
2023/06/20 19:54:37;;;;;;;6.90;4.75;;;;;;;;;;8342770;28;20889;-60
2023/06/20 19:58:38;;;;;;;7.05;4.65;;;;;;;;;;8332260;28;20025;-60
2023/06/20 20:02:39;;;;;;;7.43;4.45;;;;;;;;;;8332148;28;20359;-61
2023/06/20 20:06:39;;;;;;;6.38;4.55;;;;;;;;;;8334174;28;20025;-60
2023/06/20 20:10:39;;;;;;;6.80;4.70;;;;;;;;;;8330642;28;20034;-60
2023/06/20 20:14:39;;;;;;;8.27;4.33;;;;;;;;;;8330821;28;20075;-60
2023/06/20 20:18:39;;;;;;;6.00;4.20;;;;;;;;;;8330685;28;20043;-60
2023/06/20 20:22:40;;;;;;;6.85;4.57;;;;;;;;;;8330653;28;20303;-60
2023/06/20 20:26:40;;;;;;;8.27;4.17;;;;;;;;;;8328180;28;20171;-60
2023/06/20 20:30:40;;;;;;;6.57;4.18;;;;;;;;;;8328631;28;20362;-60
2023/06/20 20:34:40;;;;;;;7.65;4.40;;;;;;;;;;8333809;28;20393;-60
2023/06/20 20:38:40;;;;;;;6.47;4.43;;;;;;;;;;8339966;28;20028;-60
2023/06/20 20:42:41;;;;;;;5.68;3.80;;;;;;;;;;8330083;28;20031;-60
2023/06/20 20:46:41;;;;;;;5.43;4.13;;;;;;;;;;8328435;28;20131;-60
2023/06/20 20:50:41;;;;;;;6.55;3.90;;;;;;;;;;8330181;28;21353;-60
2023/06/20 20:54:41;;;;;;;9.15;3.95;;;;;;;;;;8336371;28;20029;-60
2023/06/20 20:58:42;;;;;;;6.40;3.90;;;;;;;;;;8330725;28;20033;-60
2023/06/20 21:02:43;;;;;;;5.80;3.80;;;;;;;;;;8330294;28;21576;-60
2023/06/20 21:06:43;;;;;;;7.50;3.93;;;;;;;;;;8330005;28;20350;-60
2023/06/20 21:10:43;;;;;;;4.28;3.58;;;;;;;;;;8327200;28;20024;-60
2023/06/20 21:14:43;;;;;;;6.95;3.83;;;;;;;;;;8324792;28;20740;-60
2023/06/20 21:18:43;;;;;;;5.93;3.60;;;;;;;;;;8329549;28;20068;-60
2023/06/20 21:22:44;;;;;;;6.47;3.95;;;;;;;;;;8334553;28;20016;-60
2023/06/20 21:26:44;;;;;;;5.55;3.65;;;;;;;;;;8328698;28;20515;-60
2023/06/20 21:30:44;;;;;;;7.60;3.90;;;;;;;;;;8326841;28;20068;-61
2023/06/20 21:34:45;;;;;;;6.03;3.95;;;;;;;;;;8335927;28;20028;-60
2023/06/20 21:38:45;;;;;;;5.32;3.38;;;;;;;;;;8331501;28;20025;-60
2023/06/20 21:42:46;;;;;;;5.22;3.70;;;;;;;;;;8332690;28;20486;-61
2023/06/20 21:46:46;;;;;;;4.22;3.10;;;;;;;;;;8334016;28;20044;-60
2023/06/20 21:50:46;;;;;;;8.05;3.80;;;;;;;;;;8336791;28;20025;-60
2023/06/20 21:54:46;;;;;;;4.32;3.10;;;;;;;;;;8336070;28;20029;-60
2023/06/20 21:58:46;;;;;;;5.22;3.25;;;;;;;;;;8332878;28;20033;-60
2023/06/20 22:02:47;;;;;;;7.18;3.00;;;;;;;;;;8335493;28;20039;-60
2023/06/20 22:06:47;;;;;;;3.83;2.83;;;;;;;;;;8331771;28;20028;-60
2023/06/20 22:10:47;;;;;;;4.45;3.40;;;;;;;;;;8337601;28;20107;-60
2023/06/20 22:14:48;;;;;;;4.03;3.03;;;;;;;;;;8338167;28;20126;-60
2023/06/20 22:18:48;;;;;;;3.85;3.05;;;;;;;;;;8337745;28;20037;-60
2023/06/20 22:22:48;;;;;;;5.43;3.40;;;;;;;;;;8337132;28;20021;-60
2023/06/20 22:26:49;;;;;;;5.37;3.33;;;;;;;;;;8337551;28;20763;-61
2023/06/20 22:30:49;;;;;;;5.70;3.37;;;;;;;;;;8337790;28;20325;-60
2023/06/20 22:34:49;;;;;;;4.07;3.10;;;;;;;;;;8345280;28;20325;-60
2023/06/20 22:38:49;;;;;;;5.22;2.90;;;;;;;;;;8346050;28;20025;-61
2023/06/20 22:42:49;;;;;;;4.47;3.15;;;;;;;;;;8336123;28;20027;-61
2023/06/20 22:46:50;;;;;;;5.32;3.50;;;;;;;;;;8325294;28;20623;-60
2023/06/20 22:50:52;;;;;;;6.15;3.50;;;;;;;;;;8346083;28;20027;-60
2023/06/20 22:54:52;;;;;;;5.63;3.10;;;;;;;;;;8331912;28;20036;-60
2023/06/20 22:58:53;;;;;;;4.25;3.30;;;;;;;;;;8331985;28;20283;-60
2023/06/20 23:02:53;;;;;;;8.30;3.45;;;;;;;;;;8340044;28;20078;-60
2023/06/20 23:06:53;;;;;;;5.85;3.33;;;;;;;;;;8332402;28;20135;-61
2023/06/20 23:10:54;;;;;;;6.53;3.30;;;;;;;;;;8335289;28;20029;-60
2023/06/20 23:14:54;;;;;;;7.07;3.30;;;;;;;;;;8336115;28;20389;-60
2023/06/20 23:18:54;;;;;;;5.00;3.27;;;;;;;;;;8334389;28;20062;-60
2023/06/20 23:22:54;;;;;;;3.75;3.15;;;;;;;;;;8334739;28;20085;-60
2023/06/20 23:26:55;;;;;;;6.25;3.17;;;;;;;;;;8333598;28;20135;-61
2023/06/20 23:30:55;;;;;;;6.03;2.97;;;;;;;;;;8336012;28;20144;-60
2023/06/20 23:34:55;;;;;;;5.20;3.53;;;;;;;;;;8337394;28;20271;-60
2023/06/20 23:38:56;;;;;;;3.78;3.08;;;;;;;;;;8337677;28;20059;-60
2023/06/20 23:42:57;;;;;;;6.75;3.20;;;;;;;;;;8333304;28;20114;-60
2023/06/20 23:46:57;;;;;;;6.90;3.60;;;;;;;;;;8332378;28;20562;-60
2023/06/20 23:50:57;;;;;;;7.43;3.55;;;;;;;;;;8334720;28;20942;-60
2023/06/20 23:54:58;;;;;;;5.82;3.38;;;;;;;;;;8335105;28;20254;-60
2023/06/20 23:58:58;;;;;;;4.55;3.20;;;;;;;;;;8332369;28;20128;-60
